createdAt,value
2022-10-26T00:01:11.582Z,13.33
2022-10-26T00:03:40.149Z,13.42
2022-10-26T00:06:18.759Z,13.77
2022-10-26T00:08:45.733Z,12.83
2022-10-26T00:11:13.053Z,13.73
2022-10-26T00:13:40.857Z,13.45
2022-10-26T00:16:15.620Z,14.10
2022-10-26T00:18:43.048Z,14.26
2022-10-26T00:21:10.710Z,14.67
2022-10-26T00:23:37.756Z,13.93
2022-10-26T00:26:05.296Z,14.03
2022-10-26T00:28:32.401Z,13.79
2022-10-26T00:31:03.748Z,14.64
2022-10-26T00:33:31.112Z,14.31
2022-10-26T00:35:58.285Z,15.16
2022-10-26T00:38:24.948Z,15.76
2022-10-26T00:40:51.487Z,15.23
2022-10-26T00:43:21.006Z,15.61
2022-10-26T00:45:50.931Z,15.08
2022-10-26T00:48:34.063Z,16.06
2022-10-26T00:51:08.290Z,15.82
2022-10-26T00:53:36.054Z,16.44
2022-10-26T00:56:04.053Z,16.48
2022-10-26T00:58:32.525Z,16.56
2022-10-26T01:00:59.142Z,16.28
2022-10-26T01:03:27.533Z,16.79
2022-10-26T01:05:57.905Z,16.76
2022-10-26T01:08:26.481Z,16.97
2022-10-26T01:10:53.583Z,16.50
2022-10-26T01:13:20.624Z,15.92
2022-10-26T01:16:05.634Z,15.53
2022-10-26T01:18:59.566Z,15.62
2022-10-26T01:21:39.566Z,15.27
2022-10-26T01:24:12.051Z,14.73
2022-10-26T01:27:24.619Z,14.33
2022-10-26T01:30:06.308Z,15.34
2022-10-26T01:33:04.552Z,15.21
2022-10-26T01:35:53.240Z,15.58
2022-10-26T01:38:19.729Z,15.33
2022-10-26T01:40:58.326Z,15.25
2022-10-26T01:43:30.590Z,14.98
2022-10-26T01:45:58.622Z,15.69
2022-10-26T01:48:27.841Z,15.22
2022-10-26T01:50:57.542Z,15.31
2022-10-26T01:53:26.736Z,16.00
2022-10-26T01:55:55.655Z,15.01
2022-10-26T01:58:40.927Z,15.06
2022-10-26T02:01:40.269Z,14.61
2022-10-26T02:04:15.505Z,14.18
2022-10-26T02:06:44.649Z,14.26
2022-10-26T02:09:17.404Z,13.95
2022-10-26T02:11:51.020Z,13.14
2022-10-26T02:14:49.575Z,12.51
2022-10-26T02:17:36.128Z,10.68
2022-10-26T02:20:12.958Z,9.00
2022-10-26T02:22:45.322Z,8.74
2022-10-26T02:25:20.325Z,7.73
2022-10-26T02:27:53.797Z,7.39
2022-10-26T02:30:20.314Z,7.04
2022-10-26T02:32:52.546Z,6.63
2022-10-26T02:35:25.383Z,5.49
2022-10-26T02:37:56.354Z,5.15
2022-10-26T02:40:27.503Z,5.95
2022-10-26T02:43:00.124Z,6.97
2022-10-26T02:45:34.649Z,6.60
2022-10-26T02:48:01.622Z,6.95
2022-10-26T02:50:38.211Z,8.28
2022-10-26T02:53:24.120Z,9.03
2022-10-26T02:55:52.210Z,9.51
2022-10-26T02:58:26.131Z,10.86
2022-10-26T03:00:53.746Z,11.66
2022-10-26T03:03:22.347Z,12.86
2022-10-26T03:05:48.969Z,13.02
2022-10-26T03:08:15.506Z,12.98
2022-10-26T03:10:45.172Z,13.10
2022-10-26T03:13:13.642Z,12.64
2022-10-26T03:19:01.907Z,12.88
2022-10-26T03:21:28.444Z,12.91
2022-10-26T03:23:55.077Z,11.95
2022-10-26T03:26:21.560Z,10.99
2022-10-26T03:28:48.052Z,9.85
2022-10-26T03:31:14.540Z,8.58
2022-10-26T03:33:41.082Z,7.02
2022-10-26T03:36:08.080Z,7.34
2022-10-26T03:38:34.591Z,10.41
2022-10-26T03:41:01.082Z,10.49
2022-10-26T03:43:28.040Z,9.80
2022-10-26T03:45:54.514Z,10.32
2022-10-26T03:48:21.081Z,10.04
2022-10-26T03:50:47.566Z,9.62
2022-10-26T03:53:14.036Z,8.98
2022-10-26T03:55:44.345Z,8.21
2022-10-26T03:58:10.799Z,8.35
2022-10-26T04:00:37.282Z,7.57
2022-10-26T04:03:03.848Z,7.44
2022-10-26T04:05:30.323Z,7.67
2022-10-26T04:07:58.972Z,7.51
2022-10-26T04:10:27.263Z,7.17
2022-10-26T04:13:11.988Z,6.81
2022-10-26T04:15:38.513Z,6.88
2022-10-26T04:18:05.047Z,6.78
2022-10-26T04:20:33.765Z,5.83
2022-10-26T04:23:05.894Z,5.84
2022-10-26T04:25:33.736Z,5.66
2022-10-26T04:28:02.222Z,4.98
2022-10-26T04:30:28.854Z,5.26
2022-10-26T04:32:55.554Z,5.42
2022-10-26T04:35:22.235Z,5.91
2022-10-26T04:37:49.082Z,7.32
2022-10-26T04:40:15.702Z,7.95
2022-10-26T04:42:47.330Z,7.43
2022-10-26T04:45:15.433Z,8.51
2022-10-26T04:47:42.774Z,9.66
2022-10-26T04:50:11.982Z,9.79
2022-10-26T04:52:38.830Z,10.60
2022-10-26T04:55:06.538Z,11.29
2022-10-26T04:57:34.222Z,11.45
2022-10-26T05:00:03.516Z,11.81
2022-10-26T05:02:30.218Z,11.43
2022-10-26T05:04:56.819Z,11.39
2022-10-26T05:07:23.535Z,11.01
2022-10-26T05:09:50.034Z,10.44
2022-10-26T05:12:16.531Z,10.60
2022-10-26T05:14:43.136Z,10.89
2022-10-26T05:17:09.690Z,10.45
2022-10-26T05:19:36.221Z,10.98
2022-10-26T05:22:02.797Z,11.22
2022-10-26T05:24:29.296Z,10.31
2022-10-26T05:26:55.836Z,10.60
2022-10-26T05:29:22.380Z,11.10
2022-10-26T05:31:48.863Z,10.93
2022-10-26T05:34:15.370Z,11.04
2022-10-26T05:36:41.834Z,11.03
2022-10-26T05:39:08.354Z,10.67
2022-10-26T05:41:34.866Z,10.90
2022-10-26T05:44:01.338Z,11.54
2022-10-26T05:46:27.818Z,11.05
2022-10-26T05:48:54.389Z,10.62
2022-10-26T05:51:20.910Z,10.37
2022-10-26T05:53:47.517Z,10.08
2022-10-26T05:56:33.285Z,9.70
2022-10-26T05:59:00.121Z,8.96
2022-10-26T06:01:32.446Z,9.17
2022-10-26T06:04:20.791Z,9.35
2022-10-26T06:06:53.793Z,9.00
2022-10-26T06:09:21.170Z,9.02
2022-10-26T06:14:14.930Z,8.77
2022-10-26T06:16:57.679Z,9.12
2022-10-26T06:19:50.482Z,8.82
2022-10-26T06:22:47.127Z,8.96
2022-10-26T06:25:50.131Z,8.96
2022-10-26T06:28:53.113Z,9.24
2022-10-26T06:31:20.109Z,8.89
2022-10-26T06:33:46.900Z,8.53
2022-10-26T06:36:22.808Z,8.67
2022-10-26T06:38:59.745Z,8.82
2022-10-26T06:41:27.284Z,9.04
2022-10-26T06:43:54.351Z,9.27
2022-10-26T06:46:39.554Z,9.60
2022-10-26T06:49:35.012Z,9.15
2022-10-26T06:52:03.490Z,8.51
2022-10-26T06:54:39.422Z,8.85
2022-10-26T06:57:11.288Z,8.85
2022-10-26T06:59:45.047Z,8.23
2022-10-26T07:02:12.658Z,7.98
2022-10-26T07:04:39.385Z,8.10
2022-10-26T07:07:06.179Z,7.68
2022-10-26T07:09:32.893Z,7.73
2022-10-26T07:11:59.621Z,7.52
2022-10-26T07:14:26.207Z,7.01
2022-10-26T07:16:52.943Z,6.77
2022-10-26T07:19:19.585Z,7.01
2022-10-26T07:21:46.205Z,6.48
2022-10-26T07:24:12.763Z,6.29
2022-10-26T07:26:39.473Z,6.02
2022-10-26T07:29:05.988Z,5.82
2022-10-26T07:31:32.962Z,5.30
2022-10-26T07:33:59.657Z,5.26
2022-10-26T07:36:26.153Z,5.09
2022-10-26T07:38:53.656Z,4.69
2022-10-26T07:41:20.678Z,4.78
2022-10-26T07:43:47.408Z,4.66
2022-10-26T07:46:14.551Z,5.12
2022-10-26T07:48:42.035Z,4.85
2022-10-26T07:51:08.753Z,5.59
2022-10-26T07:53:35.269Z,5.98
2022-10-26T07:56:01.747Z,4.40
2022-10-26T07:58:28.224Z,6.47
2022-10-26T08:00:55.075Z,4.88
2022-10-26T08:03:21.801Z,3.78
2022-10-26T08:05:49.602Z,3.40
2022-10-26T08:08:16.145Z,3.62
2022-10-26T08:10:43.884Z,3.33
2022-10-26T08:13:11.159Z,2.90
2022-10-26T08:15:38.813Z,3.22
2022-10-26T08:18:05.653Z,3.54
2022-10-26T08:20:32.894Z,2.91
2022-10-26T08:23:00.104Z,2.50
2022-10-26T08:25:27.385Z,2.80
2022-10-26T08:27:53.849Z,2.69
2022-10-26T08:30:20.410Z,2.77
2022-10-26T08:32:46.944Z,2.98
2022-10-26T08:35:13.704Z,2.96
2022-10-26T08:37:40.131Z,2.75
2022-10-26T08:40:07.228Z,3.00
2022-10-26T08:42:47.806Z,3.49
2022-10-26T08:45:28.130Z,3.44
2022-10-26T08:48:03.482Z,3.45
2022-10-26T08:50:38.169Z,3.78
2022-10-26T08:53:30.774Z,3.95
2022-10-26T08:56:11.509Z,4.17
2022-10-26T08:58:48.453Z,4.37
2022-10-26T09:01:15.013Z,4.21
2022-10-26T09:03:41.626Z,4.55
2022-10-26T09:06:23.770Z,4.08
2022-10-26T09:08:59.414Z,3.85
2022-10-26T09:11:36.695Z,3.75
2022-10-26T09:14:13.441Z,4.34
2022-10-26T09:16:50.774Z,4.20
2022-10-26T09:19:25.878Z,3.86
2022-10-26T09:22:16.241Z,3.89
2022-10-26T09:24:52.788Z,4.32
2022-10-26T09:27:29.788Z,4.19
2022-10-26T09:30:03.795Z,3.95
2022-10-26T09:32:38.183Z,3.94
2022-10-26T09:35:15.855Z,3.70
2022-10-26T09:37:50.472Z,3.79
2022-10-26T09:40:25.784Z,3.88
2022-10-26T09:43:00.101Z,4.43
2022-10-26T09:45:38.544Z,4.02
2022-10-26T09:48:36.664Z,3.88
2022-10-26T09:51:04.757Z,4.39
2022-10-26T09:53:32.192Z,4.71
2022-10-26T09:56:08.587Z,3.93
2022-10-26T09:58:45.641Z,4.18
2022-10-26T10:01:30.165Z,3.98
2022-10-26T10:04:13.525Z,3.74
2022-10-26T10:06:40.621Z,3.28
2022-10-26T10:09:12.102Z,3.13
2022-10-26T10:11:43.995Z,3.05
2022-10-26T10:14:16.679Z,3.03
2022-10-26T10:16:55.725Z,3.12
2022-10-26T10:19:29.038Z,3.02
2022-10-26T10:21:59.337Z,2.64
2022-10-26T10:24:31.815Z,2.69
2022-10-26T10:27:13.284Z,2.96
2022-10-26T10:29:42.631Z,3.41
2022-10-26T10:32:16.427Z,2.78
2022-10-26T10:34:43.645Z,2.98
2022-10-26T10:37:30.727Z,3.12
2022-10-26T10:40:18.034Z,3.10
2022-10-26T10:42:48.725Z,3.78
2022-10-26T10:45:29.409Z,2.95
2022-10-26T10:48:16.271Z,2.81
2022-10-26T10:51:09.432Z,3.26
2022-10-26T10:53:47.171Z,2.57
2022-10-26T10:56:40.177Z,3.07
2022-10-26T10:59:21.561Z,2.93
2022-10-26T11:02:13.977Z,4.36
2022-10-26T11:04:52.523Z,3.50
2022-10-26T11:07:23.077Z,2.97
2022-10-26T11:12:42.322Z,2.76
2022-10-26T11:15:18.715Z,2.29
2022-10-26T11:18:07.207Z,2.51
2022-10-26T11:20:41.367Z,3.83
2022-10-26T11:23:25.660Z,2.62
2022-10-26T11:26:18.185Z,2.70
2022-10-26T11:28:44.590Z,2.56
2022-10-26T11:31:17.809Z,3.30
2022-10-26T11:34:13.415Z,3.01
2022-10-26T11:36:45.376Z,3.04
2022-10-26T11:39:25.409Z,2.79
2022-10-26T11:42:03.297Z,3.19
2022-10-26T11:44:51.855Z,4.38
2022-10-26T11:47:48.979Z,3.31
2022-10-26T11:50:20.250Z,2.81
2022-10-26T11:52:56.176Z,2.71
2022-10-26T11:55:22.927Z,2.67
2022-10-26T11:57:53.173Z,2.61
2022-10-26T12:00:22.113Z,2.91
2022-10-26T12:03:12.927Z,3.29
2022-10-26T12:05:51.407Z,3.26
2022-10-26T12:08:37.208Z,2.96
2022-10-26T12:11:13.857Z,3.02
2022-10-26T12:14:04.038Z,2.64
2022-10-26T12:16:42.535Z,2.66
2022-10-26T12:19:22.194Z,2.39
2022-10-26T12:21:51.731Z,2.82
2022-10-26T12:24:27.580Z,2.76
2022-10-26T12:27:03.134Z,3.01
2022-10-26T12:29:46.477Z,2.67
2022-10-26T12:32:28.018Z,2.46
2022-10-26T12:34:54.409Z,2.43
2022-10-26T12:37:31.456Z,2.56
2022-10-26T12:40:47.065Z,2.53
2022-10-26T12:43:13.442Z,2.84
2022-10-26T12:45:47.295Z,2.88
2022-10-26T12:48:39.740Z,2.54
2022-10-26T12:51:21.170Z,2.37
2022-10-26T12:54:07.813Z,2.49
2022-10-26T12:56:50.160Z,2.40
2022-10-26T12:59:33.481Z,2.71
2022-10-26T13:02:30.682Z,2.76
2022-10-26T13:05:34.343Z,2.87
2022-10-26T13:08:09.205Z,3.22
2022-10-26T13:10:38.619Z,2.87
2022-10-26T13:13:08.132Z,2.65
2022-10-26T13:15:54.150Z,2.80
2022-10-26T13:18:22.583Z,3.78
2022-10-26T13:21:07.256Z,3.62
2022-10-26T13:23:38.529Z,3.25
2022-10-26T13:26:11.435Z,3.14
2022-10-26T13:28:37.840Z,3.32
2022-10-26T13:31:28.612Z,3.15
2022-10-26T13:34:03.438Z,3.21
2022-10-26T13:36:45.436Z,3.30
2022-10-26T13:39:30.350Z,3.72
2022-10-26T13:41:59.954Z,3.24
2022-10-26T13:44:33.301Z,2.64
2022-10-26T13:47:07.729Z,2.38
2022-10-26T13:49:42.078Z,2.60
2022-10-26T13:52:29.019Z,2.89
2022-10-26T13:55:31.013Z,3.74
2022-10-26T13:58:18.627Z,2.56
2022-10-26T14:01:10.244Z,2.68
2022-10-26T14:03:38.034Z,2.74
2022-10-26T14:06:17.501Z,2.76
2022-10-26T14:08:45.855Z,3.01
2022-10-26T14:11:16.390Z,2.65
2022-10-26T14:13:43.342Z,3.06
2022-10-26T14:16:12.932Z,2.77
2022-10-26T14:18:42.825Z,3.20
2022-10-26T14:21:21.292Z,3.25
2022-10-26T14:23:52.993Z,2.87
2022-10-26T14:26:38.188Z,3.26
2022-10-26T14:29:04.697Z,3.21
2022-10-26T14:31:33.528Z,3.07
2022-10-26T14:34:04.080Z,3.09
2022-10-26T14:36:36.491Z,2.92
2022-10-26T14:39:16.024Z,2.80
2022-10-26T14:41:43.357Z,3.06
2022-10-26T14:44:20.863Z,3.48
2022-10-26T14:46:48.052Z,2.97
2022-10-26T14:49:27.128Z,3.24
2022-10-26T14:52:06.008Z,3.41
2022-10-26T14:54:33.877Z,2.92
2022-10-26T14:57:00.332Z,2.57
2022-10-26T14:59:30.354Z,2.46
2022-10-26T15:02:19.500Z,2.45
2022-10-26T15:05:01.782Z,3.00
2022-10-26T15:07:37.042Z,3.29
2022-10-26T15:10:05.562Z,3.34
2022-10-26T15:12:37.654Z,4.40
2022-10-26T15:15:16.109Z,4.22
2022-10-26T15:17:50.804Z,4.13
2022-10-26T15:20:23.510Z,3.97
2022-10-26T15:22:53.975Z,3.64
2022-10-26T15:25:24.907Z,3.65
2022-10-26T15:27:52.128Z,3.46
2022-10-26T15:30:25.784Z,3.80
2022-10-26T15:32:55.454Z,3.44
2022-10-26T15:35:32.009Z,3.60
2022-10-26T15:37:59.487Z,3.60
2022-10-26T15:40:27.817Z,3.60
2022-10-26T15:42:57.969Z,3.60
2022-10-26T15:45:27.842Z,3.87
2022-10-26T15:47:58.031Z,3.93
2022-10-26T15:50:27.735Z,4.00
2022-10-26T15:53:06.114Z,3.74
2022-10-26T15:55:32.693Z,3.85
2022-10-26T15:57:59.241Z,4.22
2022-10-26T16:00:25.688Z,4.51
2022-10-26T16:02:52.160Z,4.38
2022-10-26T16:05:18.620Z,4.43
2022-10-26T16:07:47.652Z,4.48
2022-10-26T16:10:22.241Z,4.17
2022-10-26T16:12:48.912Z,4.48
2022-10-26T16:15:20.880Z,4.63
2022-10-26T16:17:48.077Z,5.51
2022-10-26T16:20:25.225Z,6.36
2022-10-26T16:22:52.855Z,5.54
2022-10-26T16:25:25.529Z,5.02
2022-10-26T16:27:54.591Z,4.94
2022-10-26T16:30:22.896Z,5.10
2022-10-26T16:32:51.547Z,4.79
2022-10-26T16:35:18.378Z,5.39
2022-10-26T16:37:45.812Z,5.01
2022-10-26T16:40:12.814Z,5.29
2022-10-26T16:42:39.265Z,5.27
2022-10-26T16:45:06.099Z,5.41
2022-10-26T16:47:33.249Z,5.91
2022-10-26T16:49:59.712Z,6.88
2022-10-26T16:52:26.177Z,6.66
2022-10-26T16:54:52.688Z,6.55
2022-10-26T16:57:20.373Z,6.49
2022-10-26T16:59:46.903Z,6.65
2022-10-26T17:02:14.530Z,5.89
2022-10-26T17:04:41.279Z,6.15
2022-10-26T17:07:07.788Z,5.99
2022-10-26T17:09:34.255Z,6.44
2022-10-26T17:12:02.142Z,6.83
2022-10-26T17:14:28.962Z,6.43
2022-10-26T17:16:55.459Z,6.00
2022-10-26T17:19:21.994Z,6.76
2022-10-26T17:21:48.493Z,6.97
2022-10-26T17:24:15.273Z,6.30
2022-10-26T17:26:42.228Z,6.01
2022-10-26T17:31:41.236Z,5.87
2022-10-26T17:34:07.703Z,5.89
2022-10-26T17:36:34.264Z,6.07
2022-10-26T17:39:00.941Z,6.20
2022-10-26T17:41:27.723Z,6.47
2022-10-26T17:43:54.210Z,6.87
2022-10-26T17:46:23.931Z,6.87
2022-10-26T17:48:55.981Z,6.59
2022-10-26T17:51:22.587Z,6.54
2022-10-26T17:53:50.550Z,6.05
2022-10-26T17:56:23.773Z,6.22
2022-10-26T17:58:59.184Z,6.44
2022-10-26T18:01:26.987Z,6.25
2022-10-26T18:03:53.794Z,6.21
2022-10-26T18:06:21.077Z,5.87
2022-10-26T18:08:48.415Z,6.52
2022-10-26T18:11:26.114Z,6.88
2022-10-26T18:13:57.782Z,6.46
2022-10-26T18:16:28.454Z,6.62
2022-10-26T18:18:58.742Z,6.66
2022-10-26T18:21:26.761Z,6.98
2022-10-26T18:24:02.047Z,6.73
2022-10-26T18:26:33.421Z,6.79
2022-10-26T18:29:01.947Z,6.96
2022-10-26T18:31:30.440Z,7.33
2022-10-26T18:33:59.537Z,7.75
2022-10-26T18:36:27.597Z,8.45
2022-10-26T18:38:54.756Z,9.14
2022-10-26T18:41:23.300Z,7.24
2022-10-26T18:43:52.869Z,6.53
2022-10-26T18:46:23.638Z,6.62
2022-10-26T18:48:59.595Z,6.04
2022-10-26T18:51:30.333Z,6.10
2022-10-26T18:53:58.029Z,5.69
2022-10-26T18:56:24.633Z,7.03
2022-10-26T18:58:53.802Z,6.63
2022-10-26T19:01:23.514Z,6.12
2022-10-26T19:03:55.493Z,6.28
2022-10-26T19:06:27.935Z,6.23
2022-10-26T19:08:55.479Z,6.14
2022-10-26T19:11:27.344Z,6.21
2022-10-26T19:13:55.188Z,5.95
2022-10-26T19:16:44.584Z,6.30
2022-10-26T19:21:50.168Z,6.64
2022-10-26T19:24:19.744Z,6.40
2022-10-26T19:26:47.540Z,6.04
2022-10-26T19:29:16.578Z,6.17
2022-10-26T19:31:49.934Z,6.23
2022-10-26T19:34:17.756Z,5.98
2022-10-26T19:37:19.539Z,6.13
2022-10-26T19:39:46.850Z,6.23
2022-10-26T19:42:14.089Z,5.99
2022-10-26T19:44:42.602Z,5.98
2022-10-26T19:47:09.777Z,6.54
2022-10-26T19:49:36.637Z,6.96
2022-10-26T19:52:03.218Z,6.54
2022-10-26T19:54:29.867Z,6.56
2022-10-26T19:56:56.625Z,6.58
2022-10-26T19:59:23.416Z,6.97
2022-10-26T20:01:50.761Z,6.24
2022-10-26T20:04:19.687Z,5.89
2022-10-26T20:09:19.287Z,6.40
2022-10-26T20:11:46.039Z,6.58
2022-10-26T20:14:12.827Z,5.93
2022-10-26T20:16:39.393Z,5.86
2022-10-26T20:21:46.200Z,6.17
2022-10-26T20:26:48.471Z,6.01
2022-10-26T20:29:15.014Z,5.66
2022-10-26T20:31:41.764Z,5.67
2022-10-26T20:34:08.559Z,5.79
2022-10-26T20:36:35.327Z,5.55
2022-10-26T20:39:03.809Z,6.12
2022-10-26T20:41:31.124Z,5.78
2022-10-26T20:43:58.266Z,5.66
2022-10-26T20:46:27.694Z,5.99
2022-10-26T20:48:54.869Z,5.94
2022-10-26T20:57:07.958Z,6.26
2022-10-26T21:30:13.715Z,5.99
2022-10-26T21:32:41.164Z,6.22
2022-10-26T21:35:08.386Z,5.79
2022-10-26T21:57:48.932Z,5.97
2022-10-26T22:12:12.942Z,6.39
2022-10-26T22:14:39.990Z,7.29
2022-10-26T22:17:07.487Z,6.16
2022-10-26T22:19:35.151Z,6.05
2022-10-26T22:22:02.196Z,6.02
2022-10-26T22:24:28.801Z,5.87
2022-10-26T22:26:55.419Z,5.38
2022-10-26T22:29:22.163Z,5.14
2022-10-26T22:31:48.814Z,5.34
2022-10-26T22:34:16.597Z,5.41
2022-10-26T22:36:43.686Z,5.64
2022-10-26T22:39:10.335Z,5.53
2022-10-26T22:41:37.101Z,5.25
2022-10-26T22:44:05.469Z,5.21
2022-10-26T22:46:38.086Z,4.89
2022-10-26T22:49:05.226Z,5.26
2022-10-26T22:51:34.719Z,5.18
2022-10-26T22:54:04.272Z,4.85
2022-10-26T22:56:34.269Z,5.15
2022-10-26T22:59:01.300Z,4.91
2022-10-26T23:01:33.371Z,4.73
2022-10-26T23:04:00.616Z,4.98
2022-10-26T23:06:32.110Z,5.19
2022-10-26T23:37:55.350Z,4.48
2022-10-26T23:43:22.828Z,4.76
2022-10-26T23:45:50.276Z,4.56
2022-10-26T23:48:18.249Z,4.46
2022-10-26T23:50:49.399Z,4.37
2022-10-26T23:53:20.907Z,4.66
2022-10-26T23:58:40.758Z,4.17
